Flight Track Log - Related Links

Times and Time Zones

All times are in EDT time to prevent confusion due to time zone crossing. See the TCF3480 flight status page for this flight to view local times or setup timezone preferences in your user account.

Time Position Orientation Groundspeed Altitude Reporting Facility
EDT Latitude Longitude Course Direction KTS MPH feet Rate Location/Type
Mon 10:51:24 PM 38.9333 -77.5167 288° West 165 190 2,300  Level Potomac TRACON
Mon 10:52:51 PM 38.9086 -77.6325 255° West 234 269 6,300 3,269 Climbing Washington Center
Mon 10:53:49 PM 38.9028 -77.7256 265° West 256 295 10,200 2,471 Climbing Washington Center
Mon 10:54:50 PM 38.9136 -77.8272 278° West 277 319 11,200 1,770 Climbing Washington Center
Mon 10:55:00 PM 38.8937 -78.0079 288° West  Level FlightAware Approximate
Mon 10:55:51 PM 38.9278 -77.9506 278° West 325 374 13,800  Level Washington Center
Mon 10:56:00 PM 38.9215 -78.1193 288° West  Level FlightAware Approximate
Mon 10:56:49 PM 38.9439 -78.0792 279° West 352 405 16,100  Level Washington Center
Mon 10:57:49 PM 38.9600 -78.2106 279° West 371 427 18,200 2,281 Climbing Washington Center
Mon 10:58:50 PM 38.9653 -78.3494 273° West 384 442 20,700 2,213 Climbing Washington Center
Mon 10:59:51 PM 38.9681 -78.4883 272° West 390 449 22,700 1,664 Climbing Washington Center
Mon 11:00:49 PM 38.9750 -78.6303 274° West 390 449 24,000 555 Climbing Washington Center
Mon 11:01:50 PM 38.9775 -78.7797 271° West 404 465 23,800 -492 Descending Washington Center
Mon 11:02:51 PM 38.9819 -78.9217 272° West 411 473 23,000 -857 Descending Washington Center
Mon 11:03:49 PM 38.9864 -79.0633 272° West 411 473 22,100 -513 Descending Washington Center
Mon 11:04:48 PM 38.9906 -79.1997 272° West 399 459 22,000 -50 Descending Washington Center
Mon 11:05:49 PM 38.9947 -79.3389 272° West 393 452 22,000  Level Washington Center
Mon 11:06:50 PM 38.9967 -79.4753 271° West 387 445 22,000  Level Washington Center
Mon 11:07:51 PM 38.9967 -79.6033 270° West 387 445 22,000  Level Washington Center
Mon 11:08:49 PM 39.0003 -79.7425 272° West 393 452 22,000  Level Washington Center
Mon 11:09:49 PM 39.0039 -79.8789 272° West 398 458 22,000  Level Washington Center
Mon 11:12:02 PM 39.0061 -80.1869 271° West 390 449 22,000  Level Indianapolis Center
Mon 11:13:03 PM 39.0361 -80.3144 287° West 378 435 22,000  Level Indianapolis Center
Mon 11:14:04 PM 39.0708 -80.4369 290° West 367 422 22,000  Level Indianapolis Center
Mon 11:15:05 PM 39.1036 -80.5603 289° West 366 421 22,000  Level Indianapolis Center
Mon 11:16:06 PM 39.1389 -80.6839 290° West 367 422 22,000  Level Indianapolis Center
Mon 11:17:07 PM 39.1750 -80.8081 291° West 369 425 22,000  Level Indianapolis Center
Mon 11:18:08 PM 39.2161 -80.9567 290° West 369 425 22,000  Level Indianapolis Center
Mon 11:19:09 PM 39.2500 -81.0814 289° West 370 426 22,000  Level Indianapolis Center
Mon 11:20:10 PM 39.2861 -81.2083 290° West 377 434 22,000  Level Indianapolis Center
Mon 11:21:11 PM 39.3194 -81.3347 289° West 376 433 22,000  Level Indianapolis Center
Mon 11:22:13 PM 39.3544 -81.4614 290° West 377 434 22,000  Level Indianapolis Center
Mon 11:23:14 PM 39.3886 -81.5881 289° West 376 433 22,000 -885 Level Indianapolis Center
Mon 11:24:15 PM 39.4231 -81.7136 290° West 372 428 20,200 -1,770 Descending Indianapolis Center
Mon 11:25:16 PM 39.4553 -81.8383 289° West 367 422 18,400 -1,721 Descending Indianapolis Center
Mon 11:26:17 PM 39.4875 -81.9597 289° West 360 414 16,700 -1,672 Descending Indianapolis Center
Mon 11:27:18 PM 39.5183 -82.0753 289° West 344 396 15,000 -1,721 Descending Indianapolis Center
Mon 11:28:19 PM 39.5508 -82.1942 290° West 341 392 13,200 -1,721 Descending Indianapolis Center
Mon 11:29:20 PM 39.5836 -82.3075 291° West 335 386 11,500 -1,574 Descending Indianapolis Center
Mon 11:30:21 PM 39.6208 -82.4158 294° West 329 379 10,000 -787 Descending Indianapolis Center
Mon 11:31:22 PM 39.7139 -82.4781 333° Northwest 318 366 9,900 -504 Descending Indianapolis Center
Mon 11:32:20 PM 39.7789 -82.4914 351° North 248 285 9,000 -1,475 Descending Indianapolis Center
Mon 11:33:24 PM 39.8572 -82.4961 357° North 259 298 6,900 -1,680 Descending Indianapolis Center
Mon 11:34:25 PM 39.9269 -82.5075 353° North 255 293 5,500 -1,082 Descending Indianapolis Center
Mon 11:35:26 PM 39.9742 -82.5486 326° Northwest 206 237 4,700 -787 Descending Indianapolis Center
Mon 11:36:27 PM 39.9864 -82.6219 282° West 213 245 3,900 -590 Descending Indianapolis Center
Mon 11:37:28 PM 39.9914 -82.6956 275° West 205 236 3,500 -639 Descending Indianapolis Center
Mon 11:38:29 PM 39.9953 -82.7614 274° West 193 222 2,600 -885 Descending Indianapolis Center
Mon 11:39:30 PM 39.9983 -82.8158 274° West 168 193 1,700 -885 Descending Indianapolis Center

Login

Don't have an account? Register now (free) for customized features, flight alerts, and more!